sensor_id;sensor_type;location;lat;lon;timestamp;P1;P2;P0
76043;PMS7003;64740;34.694;33.088;2023-01-28T00:01:52;23.3;17.9;11.2
76043;PMS7003;64740;34.694;33.088;2023-01-28T00:06:11;27.6;19.4;11.3
76043;PMS7003;64740;34.694;33.088;2023-01-28T00:11:52;25.2;19.5;11.4
76043;PMS7003;64740;34.694;33.088;2023-01-28T00:16:30;24.3;18.4;12
76043;PMS7003;64740;34.694;33.088;2023-01-28T00:21:42;23.2;17.7;10.5
76043;PMS7003;64740;34.694;33.088;2023-01-28T00:26:21;22.5;17.9;10.8
76043;PMS7003;64740;34.694;33.088;2023-01-28T00:31:42;24.2;18.5;11.2
76043;PMS7003;64740;34.694;33.088;2023-01-28T00:36:22;24.5;18.3;11.3
76043;PMS7003;64740;34.694;33.088;2023-01-28T00:41:54;25;19;11.2
76043;PMS7003;64740;34.694;33.088;2023-01-28T00:46:52;22.7;17.7;10.7
76043;PMS7003;64740;34.694;33.088;2023-01-28T00:51:41;25.5;19;11.4
76043;PMS7003;64740;34.694;33.088;2023-01-28T00:56:54;25;19.1;11.5
76043;PMS7003;64740;34.694;33.088;2023-01-28T01:01:11;24.3;18.9;11.6
76043;PMS7003;64740;34.694;33.088;2023-01-28T01:06:42;24.4;18.9;11.4
76043;PMS7003;64740;34.694;33.088;2023-01-28T01:11:30;24.6;18.4;11.4
76043;PMS7003;64740;34.694;33.088;2023-01-28T01:16:42;25.3;19.3;11
76043;PMS7003;64740;34.694;33.088;2023-01-28T01:21:32;24.4;18.6;11.7
76043;PMS7003;64740;34.694;33.088;2023-01-28T01:26:40;24.8;19;11.4
76043;PMS7003;64740;34.694;33.088;2023-01-28T01:31:21;26.1;20.3;11.3
76043;PMS7003;64740;34.694;33.088;2023-01-28T01:36:52;23.3;18.2;11
76043;PMS7003;64740;34.694;33.088;2023-01-28T01:41:42;24.3;17.9;11
76043;PMS7003;64740;34.694;33.088;2023-01-28T01:46:44;25.6;19.8;11.1
76043;PMS7003;64740;34.694;33.088;2023-01-28T01:51:53;23.9;18.3;10.9
76043;PMS7003;64740;34.694;33.088;2023-01-28T01:56:11;22.1;17.3;10.3
76043;PMS7003;64740;34.694;33.088;2023-01-28T02:01:43;24.4;18.4;11
76043;PMS7003;64740;34.694;33.088;2023-01-28T02:06:10;24;18.5;11.6
76043;PMS7003;64740;34.694;33.088;2023-01-28T02:11:42;23.8;18.2;11.5
76043;PMS7003;64740;34.694;33.088;2023-01-28T02:16:20;21.4;17.7;10.9
76043;PMS7003;64740;34.694;33.088;2023-01-28T02:21:55;22.3;17.4;10.5
76043;PMS7003;64740;34.694;33.088;2023-01-28T02:26:25;21.9;18.2;11
76043;PMS7003;64740;34.694;33.088;2023-01-28T02:31:26;24.4;18.1;11.2
76043;PMS7003;64740;34.694;33.088;2023-01-28T02:36:42;22.9;17.5;10.9
76043;PMS7003;64740;34.694;33.088;2023-01-28T02:41:55;21.7;16.7;10.1
76043;PMS7003;64740;34.694;33.088;2023-01-28T02:46:33;22.3;17.1;10.8
76043;PMS7003;64740;34.694;33.088;2023-01-28T02:51:24;22.6;17.4;10.8
76043;PMS7003;64740;34.694;33.088;2023-01-28T02:56:55;22.6;17.6;10.8
76043;PMS7003;64740;34.694;33.088;2023-01-28T03:01:13;22.6;18.6;11.1
76043;PMS7003;64740;34.694;33.088;2023-01-28T03:06:46;21.9;16.2;10.4
76043;PMS7003;64740;34.694;33.088;2023-01-28T03:11:23;23.4;17.8;10.6
76043;PMS7003;64740;34.694;33.088;2023-01-28T03:16:57;24.1;18.1;11.7
76043;PMS7003;64740;34.694;33.088;2023-01-28T03:21:33;23.1;17.7;10.3
76043;PMS7003;64740;34.694;33.088;2023-01-28T03:26:30;21.3;17;10.3
76043;PMS7003;64740;34.694;33.088;2023-01-28T03:31:42;21.8;17.3;10.3
76043;PMS7003;64740;34.694;33.088;2023-01-28T03:36:54;22;18;11.9
76043;PMS7003;64740;34.694;33.088;2023-01-28T03:41:10;22.1;17.6;10.9
76043;PMS7003;64740;34.694;33.088;2023-01-28T03:46:10;21.3;18.1;11.4
76043;PMS7003;64740;34.694;33.088;2023-01-28T03:51:54;22.8;17.9;10.6
76043;PMS7003;64740;34.694;33.088;2023-01-28T03:56:22;21.5;17.1;11.2
76043;PMS7003;64740;34.694;33.088;2023-01-28T04:01:42;21.4;15.3;9
76043;PMS7003;64740;34.694;33.088;2023-01-28T04:06:55;23.1;18.9;11.6
76043;PMS7003;64740;34.694;33.088;2023-01-28T04:11:56;22.7;18;11.1
76043;PMS7003;64740;34.694;33.088;2023-01-28T04:16:32;20.8;17.2;10.8
76043;PMS7003;64740;34.694;33.088;2023-01-28T04:21:57;25;19.3;11.8
76043;PMS7003;64740;34.694;33.088;2023-01-28T04:26:20;21.8;18;11.1
76043;PMS7003;64740;34.694;33.088;2023-01-28T04:31:23;24;19.5;11.7
76043;PMS7003;64740;34.694;33.088;2023-01-28T04:36:35;23.8;18.7;11.5
76043;PMS7003;64740;34.694;33.088;2023-01-28T04:41:24;24.2;19.9;12.1
76043;PMS7003;64740;34.694;33.088;2023-01-28T04:46:34;22.8;19.2;12.8
76043;PMS7003;64740;34.694;33.088;2023-01-28T04:51:46;27.1;20.3;13.2
76043;PMS7003;64740;34.694;33.088;2023-01-28T04:56:32;26.2;19.5;12.1
76043;PMS7003;64740;34.694;33.088;2023-01-28T05:01:52;23.5;20.2;12.2
76043;PMS7003;64740;34.694;33.088;2023-01-28T05:06:10;26.5;20.4;12.9
76043;PMS7003;64740;34.694;33.088;2023-01-28T05:11:30;28;23.2;14.1
76043;PMS7003;64740;34.694;33.088;2023-01-28T05:16:56;30.2;23.7;14.5
76043;PMS7003;64740;34.694;33.088;2023-01-28T05:21:32;26.5;22.2;14.2
76043;PMS7003;64740;34.694;33.088;2023-01-28T05:26:20;30.2;24.2;15.7
76043;PMS7003;64740;34.694;33.088;2023-01-28T05:31:33;43.3;35.2;21.6
76043;PMS7003;64740;34.694;33.088;2023-01-28T05:36:10;32;26.1;16.6
76043;PMS7003;64740;34.694;33.088;2023-01-28T05:41:10;34.2;26.7;17.3
76043;PMS7003;64740;34.694;33.088;2023-01-28T05:46:56;32.8;27.1;17.9
76043;PMS7003;64740;34.694;33.088;2023-01-28T05:51:34;29;24.4;15.8
76043;PMS7003;64740;34.694;33.088;2023-01-28T05:56:54;31.2;24.3;15
76043;PMS7003;64740;34.694;33.088;2023-01-28T06:01:22;25.5;19.7;12.7
76043;PMS7003;64740;34.694;33.088;2023-01-28T06:06:56;29.6;23.7;14.6
76043;PMS7003;64740;34.694;33.088;2023-01-28T06:11:11;29.8;25.2;15.9
76043;PMS7003;64740;34.694;33.088;2023-01-28T06:16:52;28.9;23.5;14.6
76043;PMS7003;64740;34.694;33.088;2023-01-28T06:21:23;29.3;24;15.1
76043;PMS7003;64740;34.694;33.088;2023-01-28T06:26:54;30.9;25.4;15.9
76043;PMS7003;64740;34.694;33.088;2023-01-28T06:31:21;29.5;23.9;15.4
76043;PMS7003;64740;34.694;33.088;2023-01-28T06:36:54;29.8;25.3;16.2
76043;PMS7003;64740;34.694;33.088;2023-01-28T06:41:59;28.3;23.9;14.7
76043;PMS7003;64740;34.694;33.088;2023-01-28T06:46:46;26.1;21.3;14.3
76043;PMS7003;64740;34.694;33.088;2023-01-28T06:51:47;27.4;21.4;13.7
76043;PMS7003;64740;34.694;33.088;2023-01-28T06:56:21;27.2;22.3;13.9
76043;PMS7003;64740;34.694;33.088;2023-01-28T07:01:54;30.8;25.1;15.9
76043;PMS7003;64740;34.694;33.088;2023-01-28T07:06:10;35.1;29.1;18.8
76043;PMS7003;64740;34.694;33.088;2023-01-28T07:11:43;39.4;31.9;21
76043;PMS7003;64740;34.694;33.088;2023-01-28T07:16:44;40;32.5;21
76043;PMS7003;64740;34.694;33.088;2023-01-28T07:21:57;40.9;33;21.2
76043;PMS7003;64740;34.694;33.088;2023-01-28T07:26:32;37.7;31.6;20.6
76043;PMS7003;64740;34.694;33.088;2023-01-28T07:31:51;39.7;32.4;20.8
76043;PMS7003;64740;34.694;33.088;2023-01-28T07:36:53;37.7;30.4;19.3
76043;PMS7003;64740;34.694;33.088;2023-01-28T07:41:42;32.2;27.5;16.9
76043;PMS7003;64740;34.694;33.088;2023-01-28T07:46:46;40.5;32.7;20.6
76043;PMS7003;64740;34.694;33.088;2023-01-28T07:51:34;38.2;30.2;19.4
76043;PMS7003;64740;34.694;33.088;2023-01-28T07:56:41;34.1;28.2;17.3
76043;PMS7003;64740;34.694;33.088;2023-01-28T08:01:10;32.5;27.2;17.6
76043;PMS7003;64740;34.694;33.088;2023-01-28T08:06:42;35;28.7;17.9
76043;PMS7003;64740;34.694;33.088;2023-01-28T08:11:09;32.6;28.1;18.1
76043;PMS7003;64740;34.694;33.088;2023-01-28T08:16:44;29.5;25;15.5
76043;PMS7003;64740;34.694;33.088;2023-01-28T08:21:46;30.2;26.4;17.2
76043;PMS7003;64740;34.694;33.088;2023-01-28T08:26:53;30.7;25.3;15.7
76043;PMS7003;64740;34.694;33.088;2023-01-28T08:31:42;31.6;26.8;16.9
76043;PMS7003;64740;34.694;33.088;2023-01-28T08:36:42;26.6;21.1;13.3
76043;PMS7003;64740;34.694;33.088;2023-01-28T08:41:54;28.8;25.2;16.8
76043;PMS7003;64740;34.694;33.088;2023-01-28T08:46:10;32.3;27;17.1
76043;PMS7003;64740;34.694;33.088;2023-01-28T08:51:46;31.1;27.4;17.3
76043;PMS7003;64740;34.694;33.088;2023-01-28T08:56:30;32;27.3;17.7
76043;PMS7003;64740;34.694;33.088;2023-01-28T09:01:10;34.2;29;18.9
76043;PMS7003;64740;34.694;33.088;2023-01-28T09:06:11;33;28.9;18.8
76043;PMS7003;64740;34.694;33.088;2023-01-28T09:11:55;30.8;26.1;16.4
76043;PMS7003;64740;34.694;33.088;2023-01-28T09:16:21;34.7;28.9;19.2
76043;PMS7003;64740;34.694;33.088;2023-01-28T09:21:35;35.6;30.3;19.5
76043;PMS7003;64740;34.694;33.088;2023-01-28T09:26:47;36.9;30.8;19.5
76043;PMS7003;64740;34.694;33.088;2023-01-28T09:31:53;36.2;29.7;19.1
76043;PMS7003;64740;34.694;33.088;2023-01-28T09:36:35;35.5;30.2;19.5
76043;PMS7003;64740;34.694;33.088;2023-01-28T09:41:36;36.6;29.9;19.5
76043;PMS7003;64740;34.694;33.088;2023-01-28T09:46:59;37.2;30.7;19.8
76043;PMS7003;64740;34.694;33.088;2023-01-28T09:51:15;35;30.3;19.4
76043;PMS7003;64740;34.694;33.088;2023-01-28T09:56:29;33.6;28.6;19.1
76043;PMS7003;64740;34.694;33.088;2023-01-28T10:01:56;32.4;28.5;18.5
76043;PMS7003;64740;34.694;33.088;2023-01-28T10:06:49;33.9;28.9;18.7
76043;PMS7003;64740;34.694;33.088;2023-01-28T10:11:48;32.1;27.8;18.7
76043;PMS7003;64740;34.694;33.088;2023-01-28T10:16:58;31.9;27.3;18.1
76043;PMS7003;64740;34.694;33.088;2023-01-28T10:21:35;34.3;29.8;19.3
76043;PMS7003;64740;34.694;33.088;2023-01-28T10:26:33;32.6;28.2;18.8
76043;PMS7003;64740;34.694;33.088;2023-01-28T10:31:34;33.2;28.1;18.5
76043;PMS7003;64740;34.694;33.088;2023-01-28T10:36:11;30.7;26.9;18.1
76043;PMS7003;64740;34.694;33.088;2023-01-28T10:41:33;33.1;28.6;19
76043;PMS7003;64740;34.694;33.088;2023-01-28T10:46:45;35.1;28.9;18.9
76043;PMS7003;64740;34.694;33.088;2023-01-28T10:51:34;32.4;28.2;18.4
76043;PMS7003;64740;34.694;33.088;2023-01-28T10:56:57;32.6;27.7;18.9
76043;PMS7003;64740;34.694;33.088;2023-01-28T11:01:41;30.6;26.5;17.2
76043;PMS7003;64740;34.694;33.088;2023-01-28T11:06:23;32.7;27.8;17.9
76043;PMS7003;64740;34.694;33.088;2023-01-28T11:11:57;30.5;25.5;16.9
76043;PMS7003;64740;34.694;33.088;2023-01-28T11:16:43;27.8;23.6;15.3
76043;PMS7003;64740;34.694;33.088;2023-01-28T11:21:14;26.6;22.6;14.5
76043;PMS7003;64740;34.694;33.088;2023-01-28T11:26:13;20.2;17.1;11.6
76043;PMS7003;64740;34.694;33.088;2023-01-28T11:31:23;19.4;16.1;11.1
76043;PMS7003;64740;34.694;33.088;2023-01-28T11:36:19;18.9;15;9.8
76043;PMS7003;64740;34.694;33.088;2023-01-28T11:41:24;12.4;9.3;6
76043;PMS7003;64740;34.694;33.088;2023-01-28T11:46:36;9.7;7.7;5.2
76043;PMS7003;64740;34.694;33.088;2023-01-28T11:51:57;10.7;7.9;5.3
76043;PMS7003;64740;34.694;33.088;2023-01-28T11:56:40;9;7;4
76043;PMS7003;64740;34.694;33.088;2023-01-28T12:01:42;5;4;2.7
76043;PMS7003;64740;34.694;33.088;2023-01-28T12:06:55;1.7;1;0.7
76043;PMS7003;64740;34.694;33.088;2023-01-28T12:11:46;2.2;0.6;0.2
76043;PMS7003;64740;34.694;33.088;2023-01-28T12:16:38;0.4;0.2;0.1
76043;PMS7003;64740;34.694;33.088;2023-01-28T12:21:35;0.4;0.3;0.1
76043;PMS7003;64740;34.694;33.088;2023-01-28T12:26:12;0.8;0.2;0.1
76043;PMS7003;64740;34.694;33.088;2023-01-28T12:31:33;1.1;0.4;0.1
76043;PMS7003;64740;34.694;33.088;2023-01-28T12:36:55;1.4;0.3;0.2
76043;PMS7003;64740;34.694;33.088;2023-01-28T12:41:11;0.5;0.3;0
76043;PMS7003;64740;34.694;33.088;2023-01-28T12:46:57;1;0.5;0.3
76043;PMS7003;64740;34.694;33.088;2023-01-28T12:51:34;0.5;0.3;0.1
76043;PMS7003;64740;34.694;33.088;2023-01-28T12:56:53;1.1;0.3;0.1
76043;PMS7003;64740;34.694;33.088;2023-01-28T13:01:36;0.6;0.4;0.2
76043;PMS7003;64740;34.694;33.088;2023-01-28T13:06:43;0.5;0.1;0
76043;PMS7003;64740;34.694;33.088;2023-01-28T13:11:23;0.6;0.2;0.1
76043;PMS7003;64740;34.694;33.088;2023-01-28T13:16:55;0.8;0.4;0.2
76043;PMS7003;64740;34.694;33.088;2023-01-28T13:21:29;1;0.4;0.1
76043;PMS7003;64740;34.694;33.088;2023-01-28T13:26:51;1.4;0.7;0.4
76043;PMS7003;64740;34.694;33.088;2023-01-28T13:31:53;0.9;0.4;0.3
76043;PMS7003;64740;34.694;33.088;2023-01-28T13:36:45;1.2;0.4;0.3
76043;PMS7003;64740;34.694;33.088;2023-01-28T13:41:41;1.4;0.3;0.1
76043;PMS7003;64740;34.694;33.088;2023-01-28T13:46:12;0.8;0.1;0
76043;PMS7003;64740;34.694;33.088;2023-01-28T13:51:44;1.4;0.2;0
76043;PMS7003;64740;34.694;33.088;2023-01-28T13:56:16;0.7;0.3;0.2
76043;PMS7003;64740;34.694;33.088;2023-01-28T14:06:27;1;0.3;0.2
76043;PMS7003;64740;34.694;33.088;2023-01-28T14:11:14;1.8;0.5;0.1
76043;PMS7003;64740;34.694;33.088;2023-01-28T14:16:23;0.8;0.6;0.4
76043;PMS7003;64740;34.694;33.088;2023-01-28T14:21:57;0.6;0.4;0.1
76043;PMS7003;64740;34.694;33.088;2023-01-28T14:26:39;1.1;0.2;0.1
76043;PMS7003;64740;34.694;33.088;2023-01-28T14:31:41;1;0.3;0.1
76043;PMS7003;64740;34.694;33.088;2023-01-28T14:36:45;1;0.1;0
76043;PMS7003;64740;34.694;33.088;2023-01-28T14:41:15;1.1;0.4;0.2
76043;PMS7003;64740;34.694;33.088;2023-01-28T14:46:46;0.9;0.7;0.5
76043;PMS7003;64740;34.694;33.088;2023-01-28T14:51:35;0.9;0.3;0.1
76043;PMS7003;64740;34.694;33.088;2023-01-28T14:56:35;0.8;0.3;0.1
76043;PMS7003;64740;34.694;33.088;2023-01-28T15:01:33;0.9;0.5;0.3
76043;PMS7003;64740;34.694;33.088;2023-01-28T15:06:53;1.1;0.5;0.2
76043;PMS7003;64740;34.694;33.088;2023-01-28T15:11:11;1.5;0.5;0.1
76043;PMS7003;64740;34.694;33.088;2023-01-28T15:16:46;1.1;0.5;0.2
76043;PMS7003;64740;34.694;33.088;2023-01-28T15:21:45;2.2;1.2;1
76043;PMS7003;64740;34.694;33.088;2023-01-28T15:26:57;2.4;1.4;1
76043;PMS7003;64740;34.694;33.088;2023-01-28T15:31:55;2.7;2;1.4
76043;PMS7003;64740;34.694;33.088;2023-01-28T15:36:11;2.4;1.9;1.4
76043;PMS7003;64740;34.694;33.088;2023-01-28T15:41:46;2.5;2.1;1.4
76043;PMS7003;64740;34.694;33.088;2023-01-28T15:46:21;2.6;1.6;1
76043;PMS7003;64740;34.694;33.088;2023-01-28T15:51:47;2.2;1.5;1.2
76043;PMS7003;64740;34.694;33.088;2023-01-28T15:56:11;2.9;1.9;1.2
76043;PMS7003;64740;34.694;33.088;2023-01-28T16:02:11;3.1;1.9;1.3
76043;PMS7003;64740;34.694;33.088;2023-01-28T16:06:35;3.7;2.2;1.5
76043;PMS7003;64740;34.694;33.088;2023-01-28T16:11:45;2.5;1.7;1.3
76043;PMS7003;64740;34.694;33.088;2023-01-28T16:16:36;3;1.5;1.1
76043;PMS7003;64740;34.694;33.088;2023-01-28T16:21:57;2.8;2.1;1.6
76043;PMS7003;64740;34.694;33.088;2023-01-28T16:26:19;2.8;1.9;1.3
76043;PMS7003;64740;34.694;33.088;2023-01-28T16:31:31;3.1;2.3;1.8
76043;PMS7003;64740;34.694;33.088;2023-01-28T16:36:57;2.8;2.3;1.6
76043;PMS7003;64740;34.694;33.088;2023-01-28T16:41:24;2.5;2.4;1.6
76043;PMS7003;64740;34.694;33.088;2023-01-28T16:46:35;4.3;2.8;2
76043;PMS7003;64740;34.694;33.088;2023-01-28T16:51:57;4;3;2.4
76043;PMS7003;64740;34.694;33.088;2023-01-28T16:56:45;5.3;3.9;3
76043;PMS7003;64740;34.694;33.088;2023-01-28T17:01:33;4.7;3.5;2.7
76043;PMS7003;64740;34.694;33.088;2023-01-28T17:06:59;5.4;4;3.1
76043;PMS7003;64740;34.694;33.088;2023-01-28T17:11:11;7.4;6.3;4.9
76043;PMS7003;64740;34.694;33.088;2023-01-28T17:16:11;6.9;5;3.8
76043;PMS7003;64740;34.694;33.088;2023-01-28T17:21:23;7.1;6.2;4.9
76043;PMS7003;64740;34.694;33.088;2023-01-28T17:26:11;7.4;6.1;4.8
76043;PMS7003;64740;34.694;33.088;2023-01-28T17:31:35;10.9;9.9;7.3
76043;PMS7003;64740;34.694;33.088;2023-01-28T17:36:21;9.3;7.5;6
76043;PMS7003;64740;34.694;33.088;2023-01-28T17:41:25;8.1;7.4;5.7
76043;PMS7003;64740;34.694;33.088;2023-01-28T17:46:51;8.3;6.8;5.2
76043;PMS7003;64740;34.694;33.088;2023-01-28T17:51:11;9.2;7.3;5.5
76043;PMS7003;64740;34.694;33.088;2023-01-28T17:56:37;8.4;7.4;5.8
76043;PMS7003;64740;34.694;33.088;2023-01-28T18:01:57;11.3;9.7;6.9
76043;PMS7003;64740;34.694;33.088;2023-01-28T18:06:45;14.8;12.7;8.9
76043;PMS7003;64740;34.694;33.088;2023-01-28T18:11:59;15.6;13.4;10
76043;PMS7003;64740;34.694;33.088;2023-01-28T18:16:23;16.8;14.2;10.9
76043;PMS7003;64740;34.694;33.088;2023-01-28T18:21:30;15.8;13.5;10.1
76043;PMS7003;64740;34.694;33.088;2023-01-28T18:26:35;12.4;10.9;8.4
76043;PMS7003;64740;34.694;33.088;2023-01-28T18:31:55;10.7;8.4;6.1
76043;PMS7003;64740;34.694;33.088;2023-01-28T18:36:35;10.8;9.4;7.1
76043;PMS7003;64740;34.694;33.088;2023-01-28T18:41:59;11.2;9.7;7.3
76043;PMS7003;64740;34.694;33.088;2023-01-28T18:46:11;12;10.6;8.3
76043;PMS7003;64740;34.694;33.088;2023-01-28T18:51:57;11.2;10.2;7.6
76043;PMS7003;64740;34.694;33.088;2023-01-28T18:56:25;11.1;10.4;8.1
76043;PMS7003;64740;34.694;33.088;2023-01-28T19:01:43;11.7;10.3;8.1
76043;PMS7003;64740;34.694;33.088;2023-01-28T19:06:35;13;11;8.4
76043;PMS7003;64740;34.694;33.088;2023-01-28T19:12:01;9.4;7.6;6.1
76043;PMS7003;64740;34.694;33.088;2023-01-28T19:16:11;8.8;7.3;5.2
76043;PMS7003;64740;34.694;33.088;2023-01-28T19:21:59;10.9;9;7.1
76043;PMS7003;64740;34.694;33.088;2023-01-28T19:26:59;13.8;12.5;9.3
76043;PMS7003;64740;34.694;33.088;2023-01-28T19:31:41;20.3;17.5;12.9
76043;PMS7003;64740;34.694;33.088;2023-01-28T19:36:45;11;10.2;7.7
76043;PMS7003;64740;34.694;33.088;2023-01-28T19:41:39;7.8;6.3;5
76043;PMS7003;64740;34.694;33.088;2023-01-28T19:46:45;7.6;6.7;5.1
76043;PMS7003;64740;34.694;33.088;2023-01-28T19:51:11;8;7.3;5.2
76043;PMS7003;64740;34.694;33.088;2023-01-28T19:56:45;8.5;7.1;5.6
76043;PMS7003;64740;34.694;33.088;2023-01-28T20:01:11;9.3;7.1;5.5
76043;PMS7003;64740;34.694;33.088;2023-01-28T20:06:57;12;9.9;7.4
76043;PMS7003;64740;34.694;33.088;2023-01-28T20:11:11;13.1;10.6;7.8
76043;PMS7003;64740;34.694;33.088;2023-01-28T20:16:59;10.4;9.5;7
76043;PMS7003;64740;34.694;33.088;2023-01-28T20:22:01;12.2;11;8.3
76043;PMS7003;64740;34.694;33.088;2023-01-28T20:26:47;15.3;13.5;9.8
76043;PMS7003;64740;34.694;33.088;2023-01-28T20:31:17;15.9;14.1;11
76043;PMS7003;64740;34.694;33.088;2023-01-28T20:36:39;17.1;14.7;11
76043;PMS7003;64740;34.694;33.088;2023-01-28T20:41:47;19;16.6;12.1
76043;PMS7003;64740;34.694;33.088;2023-01-28T20:46:25;16.5;13.8;10.3
76043;PMS7003;64740;34.694;33.088;2023-01-28T20:51:45;12.1;10.4;8.4
76043;PMS7003;64740;34.694;33.088;2023-01-28T20:56:11;10.7;9.2;6.7
76043;PMS7003;64740;34.694;33.088;2023-01-28T21:01:45;15.1;13.3;9.7
76043;PMS7003;64740;34.694;33.088;2023-01-28T21:06:25;14.5;12.9;10
76043;PMS7003;64740;34.694;33.088;2023-01-28T21:12:01;16.6;14;10.8
76043;PMS7003;64740;34.694;33.088;2023-01-28T21:16:49;18.2;16.3;12
76043;PMS7003;64740;34.694;33.088;2023-01-28T21:21:47;19.8;17.9;12.8
76043;PMS7003;64740;34.694;33.088;2023-01-28T21:27:01;18.1;16.4;12.4
76043;PMS7003;64740;34.694;33.088;2023-01-28T21:31:13;15.9;14.4;10.8
76043;PMS7003;64740;34.694;33.088;2023-01-28T21:36:12;17.6;15.9;11.8
76043;PMS7003;64740;34.694;33.088;2023-01-28T21:41:29;16.5;15.1;11.6
76043;PMS7003;64740;34.694;33.088;2023-01-28T21:46:49;14.8;13.1;9.8
76043;PMS7003;64740;34.694;33.088;2023-01-28T21:51:23;16.4;14.4;10.8
76043;PMS7003;64740;34.694;33.088;2023-01-28T21:57:01;13.8;12.5;9.6
76043;PMS7003;64740;34.694;33.088;2023-01-28T22:01:35;9.8;9;6.8
76043;PMS7003;64740;34.694;33.088;2023-01-28T22:06:50;8.3;7.4;5.8
76043;PMS7003;64740;34.694;33.088;2023-01-28T22:11:49;7.1;6.1;4.5
76043;PMS7003;64740;34.694;33.088;2023-01-28T22:17:01;9;7.2;5.5
76043;PMS7003;64740;34.694;33.088;2023-01-28T22:21:35;9.3;8;6.5
76043;PMS7003;64740;34.694;33.088;2023-01-28T22:26:21;9.7;8.1;6.2
76043;PMS7003;64740;34.694;33.088;2023-01-28T22:31:57;8.6;6.9;5.1
76043;PMS7003;64740;34.694;33.088;2023-01-28T22:36:11;6;4.8;3.7
76043;PMS7003;64740;34.694;33.088;2023-01-28T22:41:47;4;3.4;2.8
76043;PMS7003;64740;34.694;33.088;2023-01-28T22:47:01;3.7;3.1;2.3
76043;PMS7003;64740;34.694;33.088;2023-01-28T22:52:01;4.2;3;2.2
76043;PMS7003;64740;34.694;33.088;2023-01-28T22:56:31;1.9;1.5;1.1
76043;PMS7003;64740;34.694;33.088;2023-01-28T23:01:57;3.7;2.9;2.3
76043;PMS7003;64740;34.694;33.088;2023-01-28T23:06:31;3.4;2.7;2.2
76043;PMS7003;64740;34.694;33.088;2023-01-28T23:11:11;3.1;2.3;1.9
76043;PMS7003;64740;34.694;33.088;2023-01-28T23:16:31;4;3.2;2.4
76043;PMS7003;64740;34.694;33.088;2023-01-28T23:21:13;3.4;2.8;2.1
76043;PMS7003;64740;34.694;33.088;2023-01-28T23:26:33;4.1;2.9;2.2
76043;PMS7003;64740;34.694;33.088;2023-01-28T23:31:21;2.1;2;1.5
76043;PMS7003;64740;34.694;33.088;2023-01-28T23:36:35;3.6;2.2;1.8
76043;PMS7003;64740;34.694;33.088;2023-01-28T23:41:53;2.4;2.2;1.6
76043;PMS7003;64740;34.694;33.088;2023-01-28T23:46:33;2.5;1.8;1.5
76043;PMS7003;64740;34.694;33.088;2023-01-28T23:51:33;2.1;1.5;1.2
76043;PMS7003;64740;34.694;33.088;2023-01-28T23:56:55;2.4;1.6;1.3
